sensor_id;sensor_type;location;lat;lon;timestamp;P1;durP1;ratioP1;P2;durP2;ratioP2
11431;SDS011;5772;50.940;6.782;2024-01-11T00:00:41;47.23;;;43.43;;
11431;SDS011;5772;50.940;6.782;2024-01-11T00:03:07;40.60;;;37.10;;
11431;SDS011;5772;50.940;6.782;2024-01-11T00:05:33;42.50;;;38.93;;
11431;SDS011;5772;50.940;6.782;2024-01-11T00:07:58;43.70;;;39.97;;
11431;SDS011;5772;50.940;6.782;2024-01-11T00:10:24;42.80;;;39.30;;
11431;SDS011;5772;50.940;6.782;2024-01-11T00:12:49;41.20;;;37.97;;
11431;SDS011;5772;50.940;6.782;2024-01-11T00:15:14;44.23;;;40.60;;
11431;SDS011;5772;50.940;6.782;2024-01-11T00:17:40;41.93;;;38.47;;
11431;SDS011;5772;50.940;6.782;2024-01-11T00:20:07;42.50;;;38.57;;
11431;SDS011;5772;50.940;6.782;2024-01-11T00:22:33;42.67;;;39.07;;
11431;SDS011;5772;50.940;6.782;2024-01-11T00:24:58;41.03;;;37.63;;
11431;SDS011;5772;50.940;6.782;2024-01-11T00:27:24;42.00;;;38.47;;
11431;SDS011;5772;50.940;6.782;2024-01-11T00:29:49;40.10;;;37.40;;
11431;SDS011;5772;50.940;6.782;2024-01-11T00:32:14;41.83;;;38.23;;
11431;SDS011;5772;50.940;6.782;2024-01-11T00:34:40;43.33;;;39.03;;
11431;SDS011;5772;50.940;6.782;2024-01-11T00:37:06;43.20;;;39.80;;
11431;SDS011;5772;50.940;6.782;2024-01-11T00:39:32;40.87;;;37.80;;
11431;SDS011;5772;50.940;6.782;2024-01-11T00:41:57;42.50;;;38.83;;
11431;SDS011;5772;50.940;6.782;2024-01-11T00:44:22;42.73;;;38.77;;
11431;SDS011;5772;50.940;6.782;2024-01-11T00:46:48;40.60;;;37.53;;
11431;SDS011;5772;50.940;6.782;2024-01-11T00:49:13;42.90;;;39.70;;
11431;SDS011;5772;50.940;6.782;2024-01-11T00:51:38;40.57;;;37.57;;
11431;SDS011;5772;50.940;6.782;2024-01-11T00:54:05;42.17;;;38.47;;
11431;SDS011;5772;50.940;6.782;2024-01-11T00:56:31;42.67;;;38.60;;
11431;SDS011;5772;50.940;6.782;2024-01-11T00:58:56;43.73;;;39.93;;
11431;SDS011;5772;50.940;6.782;2024-01-11T01:01:21;45.93;;;42.50;;
11431;SDS011;5772;50.940;6.782;2024-01-11T01:03:47;43.90;;;40.60;;
11431;SDS011;5772;50.940;6.782;2024-01-11T01:06:12;42.43;;;39.00;;
11431;SDS011;5772;50.940;6.782;2024-01-11T01:08:37;41.97;;;38.97;;
11431;SDS011;5772;50.940;6.782;2024-01-11T01:11:04;41.03;;;38.03;;
11431;SDS011;5772;50.940;6.782;2024-01-11T01:13:29;41.87;;;38.63;;
11431;SDS011;5772;50.940;6.782;2024-01-11T01:15:55;44.53;;;40.80;;
11431;SDS011;5772;50.940;6.782;2024-01-11T01:18:20;39.37;;;36.53;;
11431;SDS011;5772;50.940;6.782;2024-01-11T01:20:46;40.77;;;37.87;;
11431;SDS011;5772;50.940;6.782;2024-01-11T01:23:11;42.60;;;39.27;;
11431;SDS011;5772;50.940;6.782;2024-01-11T01:25:36;40.53;;;37.47;;
11431;SDS011;5772;50.940;6.782;2024-01-11T01:28:03;42.20;;;38.33;;
11431;SDS011;5772;50.940;6.782;2024-01-11T01:30:29;39.37;;;36.17;;
11431;SDS011;5772;50.940;6.782;2024-01-11T01:32:54;42.63;;;39.17;;
11431;SDS011;5772;50.940;6.782;2024-01-11T01:35:20;42.33;;;38.73;;
11431;SDS011;5772;50.940;6.782;2024-01-11T01:37:45;44.00;;;40.30;;
11431;SDS011;5772;50.940;6.782;2024-01-11T01:40:11;42.73;;;39.90;;
11431;SDS011;5772;50.940;6.782;2024-01-11T01:42:40;44.60;;;41.07;;
11431;SDS011;5772;50.940;6.782;2024-01-11T01:45:08;45.13;;;41.57;;
11431;SDS011;5772;50.940;6.782;2024-01-11T01:47:34;41.87;;;38.00;;
11431;SDS011;5772;50.940;6.782;2024-01-11T01:49:59;39.80;;;36.67;;
11431;SDS011;5772;50.940;6.782;2024-01-11T01:52:24;42.33;;;39.27;;
11431;SDS011;5772;50.940;6.782;2024-01-11T01:54:50;42.17;;;38.57;;
11431;SDS011;5772;50.940;6.782;2024-01-11T01:57:15;41.20;;;38.13;;
11431;SDS011;5772;50.940;6.782;2024-01-11T01:59:41;43.67;;;39.83;;
11431;SDS011;5772;50.940;6.782;2024-01-11T02:02:08;41.67;;;39.07;;
11431;SDS011;5772;50.940;6.782;2024-01-11T02:04:34;40.73;;;37.40;;
11431;SDS011;5772;50.940;6.782;2024-01-11T02:07:00;44.13;;;40.27;;
11431;SDS011;5772;50.940;6.782;2024-01-11T02:09:26;41.33;;;38.10;;
11431;SDS011;5772;50.940;6.782;2024-01-11T02:11:53;42.57;;;39.23;;
11431;SDS011;5772;50.940;6.782;2024-01-11T02:14:19;42.30;;;38.93;;
11431;SDS011;5772;50.940;6.782;2024-01-11T02:16:44;40.60;;;37.37;;
11431;SDS011;5772;50.940;6.782;2024-01-11T02:19:12;40.50;;;37.77;;
11431;SDS011;5772;50.940;6.782;2024-01-11T02:21:38;42.23;;;38.73;;
11431;SDS011;5772;50.940;6.782;2024-01-11T02:24:06;41.17;;;38.10;;
11431;SDS011;5772;50.940;6.782;2024-01-11T02:26:32;41.10;;;38.00;;
11431;SDS011;5772;50.940;6.782;2024-01-11T02:28:57;41.60;;;38.33;;
11431;SDS011;5772;50.940;6.782;2024-01-11T02:31:23;40.57;;;37.30;;
11431;SDS011;5772;50.940;6.782;2024-01-11T02:33:48;41.50;;;38.33;;
11431;SDS011;5772;50.940;6.782;2024-01-11T02:36:14;42.87;;;39.43;;
11431;SDS011;5772;50.940;6.782;2024-01-11T02:38:39;40.43;;;37.23;;
11431;SDS011;5772;50.940;6.782;2024-01-11T02:41:08;43.63;;;40.73;;
11431;SDS011;5772;50.940;6.782;2024-01-11T02:43:33;41.67;;;38.43;;
11431;SDS011;5772;50.940;6.782;2024-01-11T02:45:59;42.60;;;39.33;;
11431;SDS011;5772;50.940;6.782;2024-01-11T02:48:27;42.67;;;39.77;;
11431;SDS011;5772;50.940;6.782;2024-01-11T02:50:52;41.33;;;37.83;;
11431;SDS011;5772;50.940;6.782;2024-01-11T02:53:18;41.53;;;38.40;;
11431;SDS011;5772;50.940;6.782;2024-01-11T02:55:43;40.23;;;36.73;;
11431;SDS011;5772;50.940;6.782;2024-01-11T02:58:10;43.43;;;39.77;;
11431;SDS011;5772;50.940;6.782;2024-01-11T03:00:35;44.37;;;40.57;;
11431;SDS011;5772;50.940;6.782;2024-01-11T03:03:00;41.97;;;38.67;;
11431;SDS011;5772;50.940;6.782;2024-01-11T03:05:26;44.37;;;40.60;;
11431;SDS011;5772;50.940;6.782;2024-01-11T03:07:51;41.13;;;38.20;;
11431;SDS011;5772;50.940;6.782;2024-01-11T03:10:17;40.83;;;37.87;;
11431;SDS011;5772;50.940;6.782;2024-01-11T03:12:42;41.27;;;37.87;;
11431;SDS011;5772;50.940;6.782;2024-01-11T03:15:09;40.83;;;37.77;;
11431;SDS011;5772;50.940;6.782;2024-01-11T03:17:34;43.00;;;39.50;;
11431;SDS011;5772;50.940;6.782;2024-01-11T03:19:59;42.57;;;39.23;;
11431;SDS011;5772;50.940;6.782;2024-01-11T03:22:25;43.83;;;40.40;;
11431;SDS011;5772;50.940;6.782;2024-01-11T03:24:50;45.13;;;41.37;;
11431;SDS011;5772;50.940;6.782;2024-01-11T03:27:16;43.97;;;40.10;;
11431;SDS011;5772;50.940;6.782;2024-01-11T03:29:41;41.70;;;38.47;;
11431;SDS011;5772;50.940;6.782;2024-01-11T03:32:08;42.50;;;39.07;;
11431;SDS011;5772;50.940;6.782;2024-01-11T03:34:33;47.40;;;43.50;;
11431;SDS011;5772;50.940;6.782;2024-01-11T03:36:58;46.80;;;43.33;;
11431;SDS011;5772;50.940;6.782;2024-01-11T03:39:24;42.43;;;39.17;;
11431;SDS011;5772;50.940;6.782;2024-01-11T03:41:50;45.57;;;42.13;;
11431;SDS011;5772;50.940;6.782;2024-01-11T03:44:15;42.80;;;39.57;;
11431;SDS011;5772;50.940;6.782;2024-01-11T03:46:40;42.87;;;40.00;;
11431;SDS011;5772;50.940;6.782;2024-01-11T03:49:07;43.60;;;39.83;;
11431;SDS011;5772;50.940;6.782;2024-01-11T03:51:32;43.83;;;39.83;;
11431;SDS011;5772;50.940;6.782;2024-01-11T03:53:58;41.90;;;38.47;;
11431;SDS011;5772;50.940;6.782;2024-01-11T03:56:23;41.03;;;38.00;;
11431;SDS011;5772;50.940;6.782;2024-01-11T03:58:48;42.97;;;39.10;;
11431;SDS011;5772;50.940;6.782;2024-01-11T04:01:14;44.43;;;41.13;;
11431;SDS011;5772;50.940;6.782;2024-01-11T04:03:41;42.03;;;39.13;;
11431;SDS011;5772;50.940;6.782;2024-01-11T04:06:08;43.00;;;39.63;;
11431;SDS011;5772;50.940;6.782;2024-01-11T04:08:33;44.80;;;40.87;;
11431;SDS011;5772;50.940;6.782;2024-01-11T04:11:01;44.87;;;41.17;;
11431;SDS011;5772;50.940;6.782;2024-01-11T04:13:26;43.50;;;39.70;;
11431;SDS011;5772;50.940;6.782;2024-01-11T04:15:52;43.83;;;40.10;;
11431;SDS011;5772;50.940;6.782;2024-01-11T04:18:17;42.63;;;39.20;;
11431;SDS011;5772;50.940;6.782;2024-01-11T04:20:43;41.17;;;37.97;;
11431;SDS011;5772;50.940;6.782;2024-01-11T04:23:09;44.47;;;40.93;;
11431;SDS011;5772;50.940;6.782;2024-01-11T04:25:35;44.13;;;40.47;;
11431;SDS011;5772;50.940;6.782;2024-01-11T04:28:00;41.60;;;38.43;;
11431;SDS011;5772;50.940;6.782;2024-01-11T04:30:25;45.03;;;41.93;;
11431;SDS011;5772;50.940;6.782;2024-01-11T04:32:51;43.07;;;39.40;;
11431;SDS011;5772;50.940;6.782;2024-01-11T04:35:16;44.90;;;41.27;;
11431;SDS011;5772;50.940;6.782;2024-01-11T04:37:42;42.13;;;39.03;;
11431;SDS011;5772;50.940;6.782;2024-01-11T04:40:09;43.40;;;40.00;;
11431;SDS011;5772;50.940;6.782;2024-01-11T04:42:35;42.80;;;38.90;;
11431;SDS011;5772;50.940;6.782;2024-01-11T04:45:00;43.60;;;40.17;;
11431;SDS011;5772;50.940;6.782;2024-01-11T04:47:25;43.27;;;40.27;;
11431;SDS011;5772;50.940;6.782;2024-01-11T04:49:51;43.80;;;41.10;;
11431;SDS011;5772;50.940;6.782;2024-01-11T04:52:16;43.43;;;39.43;;
11431;SDS011;5772;50.940;6.782;2024-01-11T04:54:42;46.47;;;42.53;;
11431;SDS011;5772;50.940;6.782;2024-01-11T04:57:08;46.63;;;42.70;;
11431;SDS011;5772;50.940;6.782;2024-01-11T04:59:34;46.73;;;43.37;;
11431;SDS011;5772;50.940;6.782;2024-01-11T05:01:59;45.37;;;41.93;;
11431;SDS011;5772;50.940;6.782;2024-01-11T05:04:24;44.00;;;40.77;;
11431;SDS011;5772;50.940;6.782;2024-01-11T05:06:50;45.60;;;42.40;;
11431;SDS011;5772;50.940;6.782;2024-01-11T05:09:16;43.97;;;41.00;;
11431;SDS011;5772;50.940;6.782;2024-01-11T05:11:41;46.80;;;43.10;;
11431;SDS011;5772;50.940;6.782;2024-01-11T05:14:08;50.33;;;46.23;;
11431;SDS011;5772;50.940;6.782;2024-01-11T05:16:33;48.83;;;44.50;;
11431;SDS011;5772;50.940;6.782;2024-01-11T05:18:58;49.17;;;45.20;;
11431;SDS011;5772;50.940;6.782;2024-01-11T05:21:24;49.30;;;45.57;;
11431;SDS011;5772;50.940;6.782;2024-01-11T05:23:50;50.90;;;46.67;;
11431;SDS011;5772;50.940;6.782;2024-01-11T05:26:16;45.87;;;42.83;;
11431;SDS011;5772;50.940;6.782;2024-01-11T05:28:41;47.27;;;43.70;;
11431;SDS011;5772;50.940;6.782;2024-01-11T05:31:08;46.93;;;43.20;;
11431;SDS011;5772;50.940;6.782;2024-01-11T05:33:34;47.30;;;43.40;;
11431;SDS011;5772;50.940;6.782;2024-01-11T05:35:59;43.80;;;40.63;;
11431;SDS011;5772;50.940;6.782;2024-01-11T05:38:25;48.47;;;44.63;;
11431;SDS011;5772;50.940;6.782;2024-01-11T05:40:50;46.70;;;43.23;;
11431;SDS011;5772;50.940;6.782;2024-01-11T05:43:15;47.83;;;44.17;;
11431;SDS011;5772;50.940;6.782;2024-01-11T05:45:41;46.50;;;43.10;;
11431;SDS011;5772;50.940;6.782;2024-01-11T05:48:09;46.70;;;43.53;;
11431;SDS011;5772;50.940;6.782;2024-01-11T05:50:35;47.10;;;43.13;;
11431;SDS011;5772;50.940;6.782;2024-01-11T05:53:00;48.20;;;44.40;;
11431;SDS011;5772;50.940;6.782;2024-01-11T05:55:25;46.77;;;43.67;;
11431;SDS011;5772;50.940;6.782;2024-01-11T05:57:51;47.83;;;43.83;;
11431;SDS011;5772;50.940;6.782;2024-01-11T06:00:17;45.80;;;42.70;;
11431;SDS011;5772;50.940;6.782;2024-01-11T06:02:43;44.97;;;41.27;;
11431;SDS011;5772;50.940;6.782;2024-01-11T06:05:09;44.93;;;41.57;;
11431;SDS011;5772;50.940;6.782;2024-01-11T06:07:35;43.83;;;40.60;;
11431;SDS011;5772;50.940;6.782;2024-01-11T06:10:00;44.17;;;40.83;;
11431;SDS011;5772;50.940;6.782;2024-01-11T06:12:26;45.67;;;41.63;;
11431;SDS011;5772;50.940;6.782;2024-01-11T06:14:51;46.10;;;42.77;;
11431;SDS011;5772;50.940;6.782;2024-01-11T06:17:17;44.00;;;40.93;;
11431;SDS011;5772;50.940;6.782;2024-01-11T06:19:42;45.17;;;42.00;;
11431;SDS011;5772;50.940;6.782;2024-01-11T06:22:09;46.60;;;43.20;;
11431;SDS011;5772;50.940;6.782;2024-01-11T06:24:34;45.93;;;42.73;;
11431;SDS011;5772;50.940;6.782;2024-01-11T06:26:59;47.90;;;44.10;;
11431;SDS011;5772;50.940;6.782;2024-01-11T06:29:25;43.77;;;40.53;;
11431;SDS011;5772;50.940;6.782;2024-01-11T06:31:50;44.37;;;41.37;;
11431;SDS011;5772;50.940;6.782;2024-01-11T06:34:15;44.90;;;41.30;;
11431;SDS011;5772;50.940;6.782;2024-01-11T06:36:41;44.03;;;40.80;;
11431;SDS011;5772;50.940;6.782;2024-01-11T06:39:07;48.50;;;44.47;;
11431;SDS011;5772;50.940;6.782;2024-01-11T06:41:33;48.37;;;44.43;;
11431;SDS011;5772;50.940;6.782;2024-01-11T06:43:58;45.37;;;42.30;;
11431;SDS011;5772;50.940;6.782;2024-01-11T06:46:24;43.57;;;40.63;;
11431;SDS011;5772;50.940;6.782;2024-01-11T06:48:49;46.10;;;42.30;;
11431;SDS011;5772;50.940;6.782;2024-01-11T06:51:14;46.03;;;42.27;;
11431;SDS011;5772;50.940;6.782;2024-01-11T06:53:40;47.67;;;43.97;;
11431;SDS011;5772;50.940;6.782;2024-01-11T06:56:13;48.73;;;44.33;;
11431;SDS011;5772;50.940;6.782;2024-01-11T06:58:39;48.97;;;44.47;;
11431;SDS011;5772;50.940;6.782;2024-01-11T07:01:05;43.70;;;39.90;;
11431;SDS011;5772;50.940;6.782;2024-01-11T07:03:30;44.97;;;41.47;;
11431;SDS011;5772;50.940;6.782;2024-01-11T07:05:55;43.20;;;40.13;;
11431;SDS011;5772;50.940;6.782;2024-01-11T07:08:21;45.90;;;42.03;;
11431;SDS011;5772;50.940;6.782;2024-01-11T07:10:46;45.50;;;41.87;;
11431;SDS011;5772;50.940;6.782;2024-01-11T07:13:13;46.30;;;42.53;;
11431;SDS011;5772;50.940;6.782;2024-01-11T07:15:38;47.83;;;44.27;;
11431;SDS011;5772;50.940;6.782;2024-01-11T07:18:04;46.10;;;42.70;;
11431;SDS011;5772;50.940;6.782;2024-01-11T07:20:29;47.33;;;42.97;;
11431;SDS011;5772;50.940;6.782;2024-01-11T07:22:54;46.10;;;42.10;;
11431;SDS011;5772;50.940;6.782;2024-01-11T07:25:20;44.93;;;42.03;;
11431;SDS011;5772;50.940;6.782;2024-01-11T07:27:45;49.03;;;45.13;;
11431;SDS011;5772;50.940;6.782;2024-01-11T07:30:12;46.17;;;42.27;;
11431;SDS011;5772;50.940;6.782;2024-01-11T07:32:38;46.33;;;42.60;;
11431;SDS011;5772;50.940;6.782;2024-01-11T07:35:04;47.50;;;43.77;;
11431;SDS011;5772;50.940;6.782;2024-01-11T07:37:30;44.37;;;41.23;;
11431;SDS011;5772;50.940;6.782;2024-01-11T07:39:55;45.10;;;41.77;;
11431;SDS011;5772;50.940;6.782;2024-01-11T07:42:22;47.40;;;43.77;;
11431;SDS011;5772;50.940;6.782;2024-01-11T07:44:47;47.53;;;43.50;;
11431;SDS011;5772;50.940;6.782;2024-01-11T07:47:14;47.07;;;44.00;;
11431;SDS011;5772;50.940;6.782;2024-01-11T07:49:39;49.83;;;45.93;;
11431;SDS011;5772;50.940;6.782;2024-01-11T07:52:05;48.70;;;45.30;;
11431;SDS011;5772;50.940;6.782;2024-01-11T07:54:30;46.60;;;42.80;;
11431;SDS011;5772;50.940;6.782;2024-01-11T07:56:56;46.67;;;43.20;;
11431;SDS011;5772;50.940;6.782;2024-01-11T07:59:36;46.43;;;43.00;;
11431;SDS011;5772;50.940;6.782;2024-01-11T08:02:01;47.67;;;44.30;;
11431;SDS011;5772;50.940;6.782;2024-01-11T08:04:28;48.93;;;44.47;;
11431;SDS011;5772;50.940;6.782;2024-01-11T08:06:54;46.73;;;43.20;;
11431;SDS011;5772;50.940;6.782;2024-01-11T08:09:19;50.47;;;46.60;;
11431;SDS011;5772;50.940;6.782;2024-01-11T08:11:45;55.10;;;50.37;;
11431;SDS011;5772;50.940;6.782;2024-01-11T08:14:10;49.77;;;45.93;;
11431;SDS011;5772;50.940;6.782;2024-01-11T08:16:35;51.23;;;46.47;;
11431;SDS011;5772;50.940;6.782;2024-01-11T08:19:01;50.87;;;46.80;;
11431;SDS011;5772;50.940;6.782;2024-01-11T08:21:27;47.60;;;43.77;;
11431;SDS011;5772;50.940;6.782;2024-01-11T08:23:53;51.73;;;47.53;;
11431;SDS011;5772;50.940;6.782;2024-01-11T08:26:18;50.33;;;45.47;;
11431;SDS011;5772;50.940;6.782;2024-01-11T08:28:44;46.13;;;42.70;;
11431;SDS011;5772;50.940;6.782;2024-01-11T08:31:09;46.87;;;42.50;;
11431;SDS011;5772;50.940;6.782;2024-01-11T08:33:35;46.60;;;42.60;;
11431;SDS011;5772;50.940;6.782;2024-01-11T08:36:00;47.40;;;42.73;;
11431;SDS011;5772;50.940;6.782;2024-01-11T08:38:27;45.63;;;41.33;;
11431;SDS011;5772;50.940;6.782;2024-01-11T08:40:52;42.57;;;38.70;;
11431;SDS011;5772;50.940;6.782;2024-01-11T08:43:18;38.47;;;34.83;;
11431;SDS011;5772;50.940;6.782;2024-01-11T08:45:43;40.83;;;37.10;;
11431;SDS011;5772;50.940;6.782;2024-01-11T08:48:08;41.70;;;38.10;;
11431;SDS011;5772;50.940;6.782;2024-01-11T08:50:34;43.97;;;39.90;;
11431;SDS011;5772;50.940;6.782;2024-01-11T08:52:59;38.87;;;35.43;;
11431;SDS011;5772;50.940;6.782;2024-01-11T08:55:28;38.60;;;34.33;;
11431;SDS011;5772;50.940;6.782;2024-01-11T08:57:53;36.87;;;33.53;;
11431;SDS011;5772;50.940;6.782;2024-01-11T09:00:19;40.93;;;36.70;;
11431;SDS011;5772;50.940;6.782;2024-01-11T09:02:44;36.43;;;33.13;;
11431;SDS011;5772;50.940;6.782;2024-01-11T09:05:10;36.63;;;32.87;;
11431;SDS011;5772;50.940;6.782;2024-01-11T09:07:35;37.80;;;33.77;;
11431;SDS011;5772;50.940;6.782;2024-01-11T09:10:01;36.20;;;32.17;;
11431;SDS011;5772;50.940;6.782;2024-01-11T09:12:28;42.67;;;33.33;;
11431;SDS011;5772;50.940;6.782;2024-01-11T09:14:54;37.10;;;33.47;;
11431;SDS011;5772;50.940;6.782;2024-01-11T09:17:19;35.87;;;32.63;;
11431;SDS011;5772;50.940;6.782;2024-01-11T09:19:44;31.70;;;28.70;;
11431;SDS011;5772;50.940;6.782;2024-01-11T09:22:10;32.80;;;29.63;;
11431;SDS011;5772;50.940;6.782;2024-01-11T09:24:35;32.77;;;29.07;;
11431;SDS011;5772;50.940;6.782;2024-01-11T09:27:00;35.17;;;31.67;;
11431;SDS011;5772;50.940;6.782;2024-01-11T09:29:27;37.60;;;33.97;;
11431;SDS011;5772;50.940;6.782;2024-01-11T09:31:52;36.43;;;33.00;;
11431;SDS011;5772;50.940;6.782;2024-01-11T09:34:18;34.13;;;30.17;;
11431;SDS011;5772;50.940;6.782;2024-01-11T09:36:43;35.63;;;32.07;;
11431;SDS011;5772;50.940;6.782;2024-01-11T09:39:09;34.53;;;30.33;;
11431;SDS011;5772;50.940;6.782;2024-01-11T09:41:34;36.57;;;30.00;;
11431;SDS011;5772;50.940;6.782;2024-01-11T09:44:01;32.73;;;29.60;;
11431;SDS011;5772;50.940;6.782;2024-01-11T09:46:31;33.77;;;30.53;;
11431;SDS011;5772;50.940;6.782;2024-01-11T09:48:56;32.80;;;29.63;;
11431;SDS011;5772;50.940;6.782;2024-01-11T09:51:22;32.23;;;28.83;;
11431;SDS011;5772;50.940;6.782;2024-01-11T09:53:48;33.70;;;29.97;;
11431;SDS011;5772;50.940;6.782;2024-01-11T09:56:14;30.27;;;27.57;;
11431;SDS011;5772;50.940;6.782;2024-01-11T09:58:40;33.00;;;29.63;;
11431;SDS011;5772;50.940;6.782;2024-01-11T10:01:11;31.73;;;28.67;;
11431;SDS011;5772;50.940;6.782;2024-01-11T10:03:38;30.90;;;27.90;;
11431;SDS011;5772;50.940;6.782;2024-01-11T10:06:04;34.47;;;31.20;;
11431;SDS011;5772;50.940;6.782;2024-01-11T10:08:31;35.07;;;31.77;;
11431;SDS011;5772;50.940;6.782;2024-01-11T10:10:57;32.73;;;29.23;;
11431;SDS011;5772;50.940;6.782;2024-01-11T10:13:25;34.73;;;30.83;;
11431;SDS011;5772;50.940;6.782;2024-01-11T10:15:52;34.80;;;31.10;;
11431;SDS011;5772;50.940;6.782;2024-01-11T10:18:17;35.20;;;31.43;;
11431;SDS011;5772;50.940;6.782;2024-01-11T10:20:44;35.10;;;31.57;;
11431;SDS011;5772;50.940;6.782;2024-01-11T10:23:09;31.53;;;28.37;;
11431;SDS011;5772;50.940;6.782;2024-01-11T10:25:35;34.13;;;30.47;;
11431;SDS011;5772;50.940;6.782;2024-01-11T10:28:01;34.00;;;30.83;;
11431;SDS011;5772;50.940;6.782;2024-01-11T10:30:26;33.53;;;30.53;;
11431;SDS011;5772;50.940;6.782;2024-01-11T10:33:00;32.40;;;29.30;;
11431;SDS011;5772;50.940;6.782;2024-01-11T10:35:25;33.83;;;30.30;;
11431;SDS011;5772;50.940;6.782;2024-01-11T10:37:52;34.57;;;30.80;;
11431;SDS011;5772;50.940;6.782;2024-01-11T10:40:18;33.43;;;30.23;;
11431;SDS011;5772;50.940;6.782;2024-01-11T10:42:44;33.30;;;29.13;;
11431;SDS011;5772;50.940;6.782;2024-01-11T10:45:14;33.20;;;29.77;;
11431;SDS011;5772;50.940;6.782;2024-01-11T10:47:40;33.53;;;29.97;;
11431;SDS011;5772;50.940;6.782;2024-01-11T10:50:10;33.20;;;29.87;;
11431;SDS011;5772;50.940;6.782;2024-01-11T10:52:36;34.70;;;31.23;;
11431;SDS011;5772;50.940;6.782;2024-01-11T10:55:19;31.30;;;28.40;;
11431;SDS011;5772;50.940;6.782;2024-01-11T10:57:47;35.17;;;31.67;;
11431;SDS011;5772;50.940;6.782;2024-01-11T11:00:14;32.63;;;29.37;;
11431;SDS011;5772;50.940;6.782;2024-01-11T11:02:41;35.87;;;32.13;;
11431;SDS011;5772;50.940;6.782;2024-01-11T11:05:06;35.47;;;31.60;;
11431;SDS011;5772;50.940;6.782;2024-01-11T11:07:33;34.97;;;31.70;;
11431;SDS011;5772;50.940;6.782;2024-01-11T11:09:59;37.27;;;31.00;;
11431;SDS011;5772;50.940;6.782;2024-01-11T11:12:26;34.83;;;31.50;;
11431;SDS011;5772;50.940;6.782;2024-01-11T11:14:52;36.77;;;32.67;;
11431;SDS011;5772;50.940;6.782;2024-01-11T11:17:18;35.13;;;31.60;;
11431;SDS011;5772;50.940;6.782;2024-01-11T11:19:43;34.73;;;31.20;;
11431;SDS011;5772;50.940;6.782;2024-01-11T11:22:09;35.20;;;31.47;;
11431;SDS011;5772;50.940;6.782;2024-01-11T11:24:34;32.40;;;29.03;;
11431;SDS011;5772;50.940;6.782;2024-01-11T11:26:59;35.47;;;31.70;;
11431;SDS011;5772;50.940;6.782;2024-01-11T11:29:26;34.90;;;31.40;;
11431;SDS011;5772;50.940;6.782;2024-01-11T11:31:51;35.63;;;31.80;;
11431;SDS011;5772;50.940;6.782;2024-01-11T11:34:17;36.77;;;30.20;;
11431;SDS011;5772;50.940;6.782;2024-01-11T11:36:45;35.30;;;31.83;;
11431;SDS011;5772;50.940;6.782;2024-01-11T11:39:11;33.33;;;29.80;;
11431;SDS011;5772;50.940;6.782;2024-01-11T11:41:38;33.87;;;30.43;;
11431;SDS011;5772;50.940;6.782;2024-01-11T11:44:04;32.83;;;29.83;;
11431;SDS011;5772;50.940;6.782;2024-01-11T11:46:31;32.87;;;29.57;;
11431;SDS011;5772;50.940;6.782;2024-01-11T11:48:57;34.00;;;30.60;;
11431;SDS011;5772;50.940;6.782;2024-01-11T11:51:22;33.93;;;30.37;;
11431;SDS011;5772;50.940;6.782;2024-01-11T11:53:48;34.03;;;30.80;;
11431;SDS011;5772;50.940;6.782;2024-01-11T11:56:16;33.33;;;29.90;;
11431;SDS011;5772;50.940;6.782;2024-01-11T11:58:42;34.87;;;31.17;;
11431;SDS011;5772;50.940;6.782;2024-01-11T12:01:08;34.00;;;30.90;;
11431;SDS011;5772;50.940;6.782;2024-01-11T12:03:36;34.47;;;30.97;;
11431;SDS011;5772;50.940;6.782;2024-01-11T12:06:02;36.20;;;32.37;;
11431;SDS011;5772;50.940;6.782;2024-01-11T12:08:28;34.67;;;31.27;;
11431;SDS011;5772;50.940;6.782;2024-01-11T12:10:53;35.67;;;31.50;;
11431;SDS011;5772;50.940;6.782;2024-01-11T12:13:19;34.10;;;30.90;;
11431;SDS011;5772;50.940;6.782;2024-01-11T12:15:44;33.23;;;29.67;;
11431;SDS011;5772;50.940;6.782;2024-01-11T12:18:10;34.73;;;31.67;;
11431;SDS011;5772;50.940;6.782;2024-01-11T12:20:36;36.00;;;32.37;;
11431;SDS011;5772;50.940;6.782;2024-01-11T12:23:02;34.90;;;31.53;;
11431;SDS011;5772;50.940;6.782;2024-01-11T12:25:28;32.60;;;29.60;;
11431;SDS011;5772;50.940;6.782;2024-01-11T12:27:53;33.67;;;30.53;;
11431;SDS011;5772;50.940;6.782;2024-01-11T12:30:21;38.40;;;33.43;;
11431;SDS011;5772;50.940;6.782;2024-01-11T12:32:47;35.00;;;31.50;;
11431;SDS011;5772;50.940;6.782;2024-01-11T12:35:12;39.07;;;31.80;;
11431;SDS011;5772;50.940;6.782;2024-01-11T12:37:39;45.67;;;34.50;;
11431;SDS011;5772;50.940;6.782;2024-01-11T12:40:05;35.80;;;32.30;;
11431;SDS011;5772;50.940;6.782;2024-01-11T12:42:33;35.90;;;30.93;;
11431;SDS011;5772;50.940;6.782;2024-01-11T12:44:59;34.67;;;31.37;;
11431;SDS011;5772;50.940;6.782;2024-01-11T12:47:25;34.53;;;31.03;;
11431;SDS011;5772;50.940;6.782;2024-01-11T12:49:50;33.93;;;30.50;;
11431;SDS011;5772;50.940;6.782;2024-01-11T12:52:16;33.47;;;29.93;;
11431;SDS011;5772;50.940;6.782;2024-01-11T12:54:42;33.47;;;29.97;;
11431;SDS011;5772;50.940;6.782;2024-01-11T12:57:08;33.67;;;30.30;;
11431;SDS011;5772;50.940;6.782;2024-01-11T12:59:36;32.57;;;29.63;;
11431;SDS011;5772;50.940;6.782;2024-01-11T13:02:01;35.60;;;31.60;;
11431;SDS011;5772;50.940;6.782;2024-01-11T13:04:27;32.17;;;29.03;;
11431;SDS011;5772;50.940;6.782;2024-01-11T13:06:53;32.23;;;29.17;;
11431;SDS011;5772;50.940;6.782;2024-01-11T13:09:18;34.03;;;30.63;;
11431;SDS011;5772;50.940;6.782;2024-01-11T13:11:45;36.63;;;33.00;;
11431;SDS011;5772;50.940;6.782;2024-01-11T13:14:10;36.23;;;32.50;;
11431;SDS011;5772;50.940;6.782;2024-01-11T13:16:36;35.40;;;31.83;;
11431;SDS011;5772;50.940;6.782;2024-01-11T13:19:01;33.13;;;29.70;;
11431;SDS011;5772;50.940;6.782;2024-01-11T13:21:26;32.97;;;29.53;;
11431;SDS011;5772;50.940;6.782;2024-01-11T13:23:52;35.67;;;30.63;;
11431;SDS011;5772;50.940;6.782;2024-01-11T13:26:18;33.10;;;30.20;;
11431;SDS011;5772;50.940;6.782;2024-01-11T13:28:44;37.17;;;33.63;;
11431;SDS011;5772;50.940;6.782;2024-01-11T13:31:10;36.93;;;33.50;;
11431;SDS011;5772;50.940;6.782;2024-01-11T13:33:36;39.73;;;36.00;;
11431;SDS011;5772;50.940;6.782;2024-01-11T13:36:02;34.63;;;30.93;;
11431;SDS011;5772;50.940;6.782;2024-01-11T13:38:28;35.60;;;31.90;;
11431;SDS011;5772;50.940;6.782;2024-01-11T13:40:54;36.83;;;33.13;;
11431;SDS011;5772;50.940;6.782;2024-01-11T13:43:20;35.57;;;32.07;;
11431;SDS011;5772;50.940;6.782;2024-01-11T13:45:46;33.83;;;30.17;;
11431;SDS011;5772;50.940;6.782;2024-01-11T13:48:12;42.83;;;34.87;;
11431;SDS011;5772;50.940;6.782;2024-01-11T13:50:38;37.70;;;34.40;;
11431;SDS011;5772;50.940;6.782;2024-01-11T13:53:03;42.10;;;38.50;;
11431;SDS011;5772;50.940;6.782;2024-01-11T13:55:28;37.60;;;33.70;;
11431;SDS011;5772;50.940;6.782;2024-01-11T13:57:54;38.50;;;35.23;;
11431;SDS011;5772;50.940;6.782;2024-01-11T14:00:19;34.90;;;31.67;;
11431;SDS011;5772;50.940;6.782;2024-01-11T14:02:46;36.57;;;32.83;;
11431;SDS011;5772;50.940;6.782;2024-01-11T14:05:12;36.13;;;32.40;;
11431;SDS011;5772;50.940;6.782;2024-01-11T14:07:38;39.83;;;35.20;;
11431;SDS011;5772;50.940;6.782;2024-01-11T14:10:04;34.33;;;31.10;;
11431;SDS011;5772;50.940;6.782;2024-01-11T14:12:30;35.30;;;31.87;;
11431;SDS011;5772;50.940;6.782;2024-01-11T14:14:55;41.27;;;36.87;;
11431;SDS011;5772;50.940;6.782;2024-01-11T14:17:20;39.47;;;34.70;;
11431;SDS011;5772;50.940;6.782;2024-01-11T14:19:47;36.23;;;32.63;;
11431;SDS011;5772;50.940;6.782;2024-01-11T14:22:12;37.00;;;32.47;;
11431;SDS011;5772;50.940;6.782;2024-01-11T14:24:38;36.87;;;33.30;;